地図

経路データ

SID SEASON NUMBER BASIN SUBBASIN NAME ISO_TIME NATURE LAT LON WMO_WIND WMO_PRES WMO_AGENCY TRACK_TYPE DIST2LAND LANDFALL IFLAG USA_AGENCY USA_ATCF_ID USA_LAT USA_LON USA_RECORD USA_STATUS USA_WIND USA_PRES USA_SSHS USA_R34_NE USA_R34_SE USA_R34_SW USA_R34_NW USA_R50_NE USA_R50_SE USA_R50_SW USA_R50_NW USA_R64_NE USA_R64_SE USA_R64_SW USA_R64_NW USA_POCI USA_ROCI USA_RMW USA_EYE TOKYO_LAT TOKYO_LON TOKYO_GRADE TOKYO_WIND TOKYO_PRES TOKYO_R50_DIR TOKYO_R50_LONG TOKYO_R50_SHORT TOKYO_R30_DIR TOKYO_R30_LONG TOKYO_R30_SHORT TOKYO_LAND CMA_LAT CMA_LON CMA_CAT CMA_WIND CMA_PRES HKO_LAT HKO_LON HKO_CAT HKO_WIND HKO_PRES NEWDELHI_LAT NEWDELHI_LON NEWDELHI_GRADE NEWDELHI_WIND NEWDELHI_PRES NEWDELHI_CI NEWDELHI_DP NEWDELHI_POCI REUNION_LAT REUNION_LON REUNION_TYPE REUNION_WIND REUNION_PRES REUNION_TNUM REUNION_CI REUNION_RMW REUNION_R34_NE REUNION_R34_SE REUNION_R34_SW REUNION_R34_NW REUNION_R50_NE REUNION_R50_SE REUNION_R50_SW REUNION_R50_NW REUNION_R64_NE REUNION_R64_SE REUNION_R64_SW REUNION_R64_NW BOM_LAT BOM_LON BOM_TYPE BOM_WIND BOM_PRES BOM_TNUM BOM_CI BOM_RMW BOM_R34_NE BOM_R34_SE BOM_R34_SW BOM_R34_NW BOM_R50_NE BOM_R50_SE BOM_R50_SW BOM_R50_NW BOM_R64_NE BOM_R64_SE BOM_R64_SW BOM_R64_NW BOM_ROCI BOM_POCI BOM_EYE BOM_POS_METHOD BOM_PRES_METHOD NADI_LAT NADI_LON NADI_CAT NADI_WIND NADI_PRES WELLINGTON_LAT WELLINGTON_LON WELLINGTON_WIND WELLINGTON_PRES DS824_LAT DS824_LON DS824_STAGE DS824_WIND DS824_PRES TD9636_LAT TD9636_LON TD9636_STAGE TD9636_WIND TD9636_PRES TD9635_LAT TD9635_LON TD9635_WIND TD9635_PRES TD9635_ROCI NEUMANN_LAT NEUMANN_LON NEUMANN_CLASS NEUMANN_WIND NEUMANN_PRES MLC_LAT MLC_LON MLC_CLASS MLC_WIND MLC_PRES USA_GUST BOM_GUST BOM_GUST_PER REUNION_GUST REUNION_GUST_PER USA_SEAHGT USA_SEARAD_NE USA_SEARAD_SE USA_SEARAD_SW USA_SEARAD_NW STORM_SPEED STORM_DIR
1931003S23048 1931 3 SI MM NOT_NAMED 1931-01-03 06:00:00 NR -23.2000 47.6000 reunion main 0 0 _____O________ -1 -23.2000 47.6000 99 9.90000 1 115
1931003S23048 1931 3 SI MM NOT_NAMED 1931-01-03 09:00:00 NR -23.2288 47.6581 main 0 0 _____P________ -1 -23.2288 47.6581 99 1 118
1931003S23048 1931 3 SI MM NOT_NAMED 1931-01-03 12:00:00 NR -23.2584 47.7179 main 0 0 _____P________ -1 -23.2584 47.7179 99 1 119
1931003S23048 1931 3 SI MM NOT_NAMED 1931-01-03 15:00:00 NR -23.2897 47.7809 main 10 10 _____P________ -1 -23.2897 47.7809 99 1 118
1931003S23048 1931 3 SI MM NOT_NAMED 1931-01-03 18:00:00 NR -23.3234 47.8487 main 10 10 _____P________ -1 -23.3234 47.8487 99 1 119
1931003S23048 1931 3 SI MM NOT_NAMED 1931-01-03 21:00:00 NR -23.3605 47.9229 main 20 20 _____P________ -1 -23.3605 47.9229 99 2 119
1931003S23048 1931 3 SI MM NOT_NAMED 1931-01-04 00:00:00 NR -23.4018 48.0051 main 30 30 _____P________ -1 -23.4018 48.0051 99 2 119
1931003S23048 1931 3 SI MM NOT_NAMED 1931-01-04 03:00:00 NR -23.4480 48.0969 main 40 40 _____P________ -1 -23.4480 48.0969 99 2 119
1931003S23048 1931 3 SI MM NOT_NAMED 1931-01-04 06:00:00 NR -23.5000 48.2000 reunion main 52 52 _____O________ -1 -23.5000 48.2000 99 9.90000 2 119
1931003S23048 1931 3 SI MM NOT_NAMED 1931-01-04 09:00:00 NR -23.5588 48.3163 main 65 65 _____P________ -1 -23.5588 48.3163 99 3 119
1931003S23048 1931 3 SI MM NOT_NAMED 1931-01-04 12:00:00 NR -23.6259 48.4491 main 74 74 _____P________ -1 -23.6259 48.4491 99 3 119
1931003S23048 1931 3 SI MM NOT_NAMED 1931-01-04 15:00:00 NR -23.7031 48.6020 main 97 97 _____P________ -1 -23.7031 48.6020 99 3 119
1931003S23048 1931 3 SI MM NOT_NAMED 1931-01-04 18:00:00 NR -23.7922 48.7788 main 120 120 _____P________ -1 -23.7922 48.7788 99 4 119
1931003S23048 1931 3 SI MM NOT_NAMED 1931-01-04 21:00:00 NR -23.8947 48.9832 main 143 143 _____P________ -1 -23.8947 48.9832 99 5 119
1931003S23048 1931 3 SI MM NOT_NAMED 1931-01-05 00:00:00 NR -24.0125 49.2189 main 166 166 _____P________ -1 -24.0125 49.2189 99 5 119
1931003S23048 1931 3 SI MM NOT_NAMED 1931-01-05 03:00:00 NR -24.1470 49.4899 main 199 199 _____P________ -1 -24.1470 49.4899 99 6 118
1931003S23048 1931 3 SI MM NOT_NAMED 1931-01-05 06:00:00 NR -24.3000 49.8000 reunion main 235 235 _____O________ -1 -24.3000 49.8000 99 9.90000 7 118
1931003S23048 1931 3 SI MM NOT_NAMED 1931-01-05 09:00:00 NR -24.4903 50.1944 main 279 279 _____P________ -1 -24.4903 50.1944 99 9 118
1931003S23048 1931 3 SI MM NOT_NAMED 1931-01-05 12:00:00 NR -24.7015 50.6362 main 323 323 _____P________ -1 -24.7015 50.6362 99 9 118
1931003S23048 1931 3 SI MM NOT_NAMED 1931-01-05 15:00:00 NR -24.9262 51.1099 main 377 377 _____P________ -1 -24.9262 51.1099 99 10 118
1931003S23048 1931 3 SI MM NOT_NAMED 1931-01-05 18:00:00 NR -25.1569 51.5999 main 435 435 _____P________ -1 -25.1569 51.5999 99 10 117
1931003S23048 1931 3 SI MM NOT_NAMED 1931-01-05 21:00:00 NR -25.3865 52.0902 main 489 489 _____P________ -1 -25.3865 52.0902 99 10 117
1931003S23048 1931 3 SI MM NOT_NAMED 1931-01-06 00:00:00 NR -25.6080 52.5645 main 544 544 _____P________ -1 -25.6080 52.5645 99 9 117
1931003S23048 1931 3 SI MM NOT_NAMED 1931-01-06 03:00:00 NR -25.8147 53.0067 main 554 550 _____P________ -1 -25.8147 53.0067 99 8 118
1931003S23048 1931 3 SI MM NOT_NAMED 1931-01-06 06:00:00 NR -26.0000 53.4000 reunion main 559 556 _____O________ -1 -26.0000 53.4000 99 9.90000 7 118
1931003S23048 1931 3 SI MM NOT_NAMED 1931-01-06 09:00:00 NR -26.1592 53.7320 main 570 563 _____P________ -1 -26.1592 53.7320 99 6 118
1931003S23048 1931 3 SI MM NOT_NAMED 1931-01-06 12:00:00 NR -26.2945 54.0064 main 571 568 _____P________ -1 -26.2945 54.0064 99 5 119
1931003S23048 1931 3 SI MM NOT_NAMED 1931-01-06 15:00:00 NR -26.4094 54.2313 main 576 574 _____P________ -1 -26.4094 54.2313 99 4 120
1931003S23048 1931 3 SI MM NOT_NAMED 1931-01-06 18:00:00 NR -26.5075 54.4148 main 582 580 _____P________ -1 -26.5075 54.4148 99 4 122
1931003S23048 1931 3 SI MM NOT_NAMED 1931-01-06 21:00:00 NR -26.5922 54.5651 main 589 588 _____P________ -1 -26.5922 54.5651 99 3 123
1931003S23048 1931 3 SI MM NOT_NAMED 1931-01-07 00:00:00 NR -26.6670 54.6906 main 599 597 _____P________ -1 -26.6670 54.6906 99 3 124
1931003S23048 1931 3 SI MM NOT_NAMED 1931-01-07 03:00:00 NR -26.7352 54.7994 main 597 597 _____P________ -1 -26.7352 54.7994 99 2 126
1931003S23048 1931 3 SI MM NOT_NAMED 1931-01-07 06:00:00 NR -26.8000 54.9000 reunion main 607 _____O________ -1 -26.8000 54.9000 99 9.90000 2 125

IBTrACS Databaseについて

本データベースは、米国NOAAが公開する1842年以降の世界の熱帯低気圧のベストトラックデータアーカイブInternational Best Track Archive for Climate Stewardship (IBTrACS)を、ウェブで閲覧しやすい形式に変換したものです。

最終更新日:2021-11-26